TimeMDT,TemperatureF,Dew PointF,Humidity,Sea Level PressureIn,VisibilityMPH,Wind Direction,Wind SpeedMPH,Gust SpeedMPH,PrecipitationIn,Events,Conditions,WindDirDegrees,DateUTC
12:53 AM,46.9,23.0,39,30.05,10.0,Variable,3.5,-,N/A,,Clear,0,2013-04-28 06:53:00
1:53 AM,41.0,25.0,53,30.07,10.0,West,4.6,-,N/A,,Clear,280,2013-04-28 07:53:00
2:53 AM,39.0,25.0,57,30.06,10.0,Variable,3.5,-,N/A,,Clear,0,2013-04-28 08:53:00
3:53 AM,39.9,23.0,51,30.05,10.0,ESE,4.6,-,N/A,,Clear,120,2013-04-28 09:53:00
4:53 AM,37.0,24.1,59,30.06,10.0,Calm,Calm,-,N/A,,Clear,0,2013-04-28 10:53:00
5:53 AM,36.0,24.1,62,30.07,10.0,South,4.6,-,N/A,,Clear,190,2013-04-28 11:53:00
7:53 AM,41.0,25.0,53,30.08,10.0,Variable,4.6,-,N/A,,Clear,0,2013-04-28 13:53:00
8:53 AM,48.0,26.1,42,30.06,10.0,Variable,4.6,-,N/A,,Clear,0,2013-04-28 14:53:00
9:53 AM,54.0,25.0,33,30.04,10.0,NW,5.8,-,N/A,,Clear,320,2013-04-28 15:53:00
10:53 AM,59.0,25.0,27,30.00,10.0,Variable,4.6,-,N/A,,Clear,0,2013-04-28 16:53:00
11:53 AM,64.0,19.9,18,29.99,10.0,West,9.2,-,N/A,,Clear,260,2013-04-28 17:53:00
12:53 PM,68.0,21.9,17,29.93,10.0,WNW,4.6,-,N/A,,Clear,300,2013-04-28 18:53:00
1:53 PM,73.0,21.9,15,29.90,10.0,West,9.2,18.4,N/A,,Clear,280,2013-04-28 19:53:00
2:53 PM,73.9,23.0,15,29.87,10.0,WNW,8.1,25.3,N/A,,Clear,300,2013-04-28 20:53:00
3:53 PM,75.0,19.9,13,29.83,10.0,WSW,17.3,31.1,N/A,,Clear,250,2013-04-28 21:53:00
4:53 PM,75.0,19.9,13,29.82,10.0,West,17.3,23.0,N/A,,Clear,280,2013-04-28 22:53:00
5:53 PM,75.0,21.0,13,29.81,10.0,West,18.4,24.2,N/A,,Partly Cloudy,260,2013-04-28 23:53:00
6:53 PM,73.0,21.0,14,29.81,10.0,WSW,16.1,-,N/A,,Clear,250,2013-04-29 00:53:00
7:53 PM,70.0,21.0,16,29.81,10.0,WSW,17.3,-,N/A,,Clear,250,2013-04-29 01:53:00
8:53 PM,64.9,25.0,22,29.81,10.0,West,10.4,-,N/A,,Clear,270,2013-04-29 02:53:00
9:53 PM,62.1,25.0,24,29.82,10.0,Variable,4.6,-,N/A,,Clear,0,2013-04-29 03:53:00
10:53 PM,60.1,27.0,28,29.82,10.0,WSW,5.8,-,N/A,,Scattered Clouds,240,2013-04-29 04:53:00
11:53 PM,59.0,28.0,31,29.80,10.0,SSW,4.6,-,N/A,,Mostly Cloudy,200,2013-04-29 05:53:00